createdAt,value
2023-05-11T00:01:08.355Z,12.43
2023-05-11T00:03:10.463Z,12.41
2023-05-11T00:05:12.148Z,12.42
2023-05-11T00:07:13.615Z,12.40
2023-05-11T00:09:15.150Z,12.39
2023-05-11T00:11:18.506Z,12.38
2023-05-11T00:13:20.442Z,12.38
2023-05-11T00:15:21.934Z,12.38
2023-05-11T00:17:23.523Z,12.37
2023-05-11T00:19:25.083Z,12.37
2023-05-11T00:21:26.820Z,12.38
2023-05-11T00:23:28.393Z,12.38
2023-05-11T00:25:30.082Z,12.38
2023-05-11T00:27:31.548Z,12.37
2023-05-11T00:29:33.012Z,12.38
2023-05-11T00:31:34.530Z,12.38
2023-05-11T00:33:36.081Z,12.37
2023-05-11T00:35:37.700Z,12.38
2023-05-11T00:37:39.375Z,12.40
2023-05-11T00:39:41.545Z,12.39
2023-05-11T00:41:43.029Z,12.39
2023-05-11T00:43:44.480Z,12.39
2023-05-11T00:45:48.150Z,12.37
2023-05-11T00:47:50.008Z,12.36
2023-05-11T00:49:53.316Z,12.35
2023-05-11T00:51:55.063Z,12.34
2023-05-11T00:53:56.890Z,12.32
2023-05-11T00:55:59.046Z,12.31
2023-05-11T00:58:00.616Z,12.30
2023-05-11T01:00:03.399Z,12.31
2023-05-11T01:02:05.567Z,12.30
2023-05-11T01:04:07.726Z,12.28
2023-05-11T01:06:15.562Z,12.26
2023-05-11T01:08:31.035Z,12.26
2023-05-11T01:10:58.848Z,12.24
2023-05-11T01:13:26.783Z,12.22
2023-05-11T01:15:50.890Z,12.21
2023-05-11T01:18:11.715Z,12.20
2023-05-11T01:20:18.683Z,12.21
2023-05-11T01:22:44.996Z,12.20
2023-05-11T01:25:31.752Z,12.17
2023-05-11T01:28:14.249Z,12.18
2023-05-11T01:30:21.551Z,12.17
2023-05-11T01:32:26.398Z,12.17
2023-05-11T01:34:31.941Z,12.17
2023-05-11T01:36:36.040Z,12.17
2023-05-11T01:38:40.839Z,12.18
2023-05-11T01:40:44.356Z,12.18
2023-05-11T01:42:50.035Z,12.19
2023-05-11T01:44:55.214Z,12.17
2023-05-11T01:47:00.529Z,12.18
2023-05-11T01:49:07.511Z,12.17
2023-05-11T01:51:09.607Z,12.18
2023-05-11T01:53:13.671Z,12.17
2023-05-11T01:55:19.504Z,12.18
2023-05-11T01:57:22.045Z,12.18
2023-05-11T01:59:26.433Z,12.17
2023-05-11T02:01:30.514Z,12.17
2023-05-11T02:03:35.052Z,12.17
2023-05-11T02:05:38.973Z,12.17
2023-05-11T02:07:42.892Z,12.17
2023-05-11T02:09:45.785Z,12.18
2023-05-11T02:11:49.150Z,12.18
2023-05-11T02:13:53.285Z,12.17
2023-05-11T02:15:56.932Z,12.18
2023-05-11T02:17:59.338Z,12.18
2023-05-11T02:20:03.677Z,12.18
2023-05-11T02:22:07.015Z,12.19
2023-05-11T02:24:09.313Z,12.17
2023-05-11T02:26:13.394Z,12.17
2023-05-11T02:28:14.937Z,12.17
2023-05-11T02:30:16.808Z,12.16
2023-05-11T02:32:21.681Z,12.15
2023-05-11T02:34:26.786Z,12.13
2023-05-11T02:36:29.799Z,12.11
2023-05-11T02:38:34.443Z,12.09
2023-05-11T02:40:45.873Z,12.05
2023-05-11T02:42:52.837Z,12.05
2023-05-11T02:45:20.639Z,12.05
2023-05-11T02:47:29.019Z,12.03
2023-05-11T02:49:32.514Z,12.02
2023-05-11T02:51:37.675Z,12.01
2023-05-11T02:53:41.562Z,11.98
2023-05-11T02:55:43.141Z,11.98
2023-05-11T02:57:45.722Z,11.97
2023-05-11T02:59:48.202Z,11.97
2023-05-11T03:01:50.722Z,11.97
2023-05-11T03:03:52.877Z,11.97
2023-05-11T03:05:54.514Z,11.98
2023-05-11T03:07:59.665Z,11.99
2023-05-11T03:10:02.960Z,11.98
2023-05-11T03:12:05.620Z,11.99
2023-05-11T03:14:07.563Z,11.99
2023-05-11T03:16:11.470Z,11.99
2023-05-11T03:18:13.572Z,11.97
2023-05-11T03:20:16.936Z,11.97
2023-05-11T03:22:20.348Z,11.99
2023-05-11T03:24:22.874Z,11.98
2023-05-11T03:26:28.378Z,11.99
2023-05-11T03:28:31.841Z,11.99
2023-05-11T03:30:33.771Z,11.97
2023-05-11T03:32:36.126Z,11.97
2023-05-11T03:34:37.757Z,11.97
2023-05-11T03:36:40.556Z,11.97
2023-05-11T03:38:45.007Z,11.96
2023-05-11T03:40:47.707Z,11.98
2023-05-11T03:42:51.324Z,11.97
2023-05-11T03:44:58.317Z,11.98
2023-05-11T03:47:01.702Z,11.99
2023-05-11T03:49:05.057Z,12.00
2023-05-11T03:51:06.935Z,12.00
2023-05-11T03:53:08.805Z,12.00
2023-05-11T03:55:10.768Z,12.00
2023-05-11T03:57:13.920Z,12.01
2023-05-11T03:59:16.786Z,12.03
2023-05-11T04:01:18.869Z,12.02
2023-05-11T04:03:20.579Z,12.02
2023-05-11T04:05:22.202Z,12.02
2023-05-11T04:07:23.783Z,12.01
2023-05-11T04:09:25.518Z,12.02
2023-05-11T04:11:27.630Z,12.03
2023-05-11T04:13:29.111Z,12.03
2023-05-11T04:15:30.567Z,12.02
2023-05-11T04:17:32.076Z,12.03
2023-05-11T04:19:33.553Z,12.04
2023-05-11T04:21:35.932Z,12.04
2023-05-11T04:23:38.230Z,12.04
2023-05-11T04:25:39.707Z,12.02
2023-05-11T04:27:41.275Z,12.01
2023-05-11T04:29:42.798Z,11.99
2023-05-11T04:31:44.300Z,11.95
2023-05-11T04:33:45.826Z,11.95
2023-05-11T04:35:49.258Z,11.94
2023-05-11T04:37:50.834Z,11.94
2023-05-11T04:39:52.386Z,11.95
2023-05-11T04:41:53.866Z,11.95
2023-05-11T04:43:55.330Z,11.95
2023-05-11T04:45:57.048Z,11.94
2023-05-11T04:47:58.548Z,11.92
2023-05-11T04:50:00.079Z,11.90
2023-05-11T04:52:01.610Z,11.91
2023-05-11T04:54:03.155Z,11.90
2023-05-11T04:56:05.108Z,11.89
2023-05-11T04:58:06.658Z,11.88
2023-05-11T05:00:09.298Z,11.90
2023-05-11T05:02:10.791Z,11.92
2023-05-11T05:04:12.594Z,11.94
2023-05-11T05:06:14.196Z,11.97
2023-05-11T05:08:15.698Z,11.98
2023-05-11T05:10:17.604Z,11.98
2023-05-11T05:12:19.300Z,11.98
2023-05-11T05:14:20.751Z,11.98
2023-05-11T05:16:22.316Z,12.00
2023-05-11T05:18:23.832Z,12.00
2023-05-11T05:20:25.556Z,12.00
2023-05-11T05:22:27.086Z,12.01
2023-05-11T05:24:28.603Z,12.03
2023-05-11T05:26:30.139Z,12.04
2023-05-11T05:28:31.568Z,12.07
2023-05-11T05:30:33.191Z,12.08
2023-05-11T05:32:34.736Z,12.10
2023-05-11T05:34:36.314Z,12.13
2023-05-11T05:36:39.110Z,12.14
2023-05-11T05:38:40.590Z,12.15
2023-05-11T05:40:42.121Z,12.17
2023-05-11T05:42:43.940Z,12.20
2023-05-11T05:44:45.452Z,12.18
2023-05-11T05:46:47.120Z,12.20
2023-05-11T05:48:48.685Z,12.22
2023-05-11T05:50:50.785Z,12.24
2023-05-11T05:52:52.254Z,12.26
2023-05-11T05:54:53.683Z,12.29
2023-05-11T05:56:55.451Z,12.31
2023-05-11T05:58:56.951Z,12.36
2023-05-11T06:00:58.456Z,12.39
2023-05-11T06:03:00.285Z,12.42
2023-05-11T06:05:02.043Z,12.42
2023-05-11T06:07:03.578Z,12.40
2023-05-11T06:09:05.043Z,12.42
2023-05-11T06:11:06.555Z,12.45
2023-05-11T06:13:08.485Z,12.44
2023-05-11T06:15:10.338Z,12.46
2023-05-11T06:17:11.845Z,12.48
2023-05-11T06:19:13.551Z,12.48
2023-05-11T06:21:15.115Z,12.50
2023-05-11T06:23:16.720Z,12.53
2023-05-11T06:25:18.215Z,12.55
2023-05-11T06:27:19.736Z,12.58
2023-05-11T06:29:22.303Z,12.58
2023-05-11T06:31:24.397Z,12.61
2023-05-11T06:33:26.417Z,12.62
2023-05-11T06:35:27.894Z,12.64
2023-05-11T06:37:30.182Z,12.65
2023-05-11T06:39:31.663Z,12.66
2023-05-11T06:41:33.244Z,12.66
2023-05-11T06:43:34.701Z,12.68
2023-05-11T06:45:36.890Z,12.70
2023-05-11T06:47:39.392Z,12.74
2023-05-11T06:49:44.250Z,12.77
2023-05-11T06:51:45.725Z,12.80
2023-05-11T06:53:47.361Z,12.83
2023-05-11T06:55:48.841Z,12.86
2023-05-11T06:57:50.300Z,12.87
2023-05-11T06:59:51.817Z,12.89
2023-05-11T07:01:53.301Z,12.92
2023-05-11T07:03:55.388Z,12.97
2023-05-11T07:05:56.859Z,13.00
2023-05-11T07:07:58.336Z,13.02
2023-05-11T07:09:59.899Z,13.04
2023-05-11T07:12:01.474Z,13.09
2023-05-11T07:14:03.404Z,13.15
2023-05-11T07:16:05.095Z,13.22
2023-05-11T07:18:06.634Z,13.25
2023-05-11T07:20:08.836Z,13.27
2023-05-11T07:22:10.704Z,13.30
2023-05-11T07:24:13.171Z,13.32
2023-05-11T07:26:14.695Z,13.35
2023-05-11T07:28:16.232Z,13.39
2023-05-11T07:30:18.824Z,13.42
2023-05-11T07:32:20.530Z,13.47
2023-05-11T07:34:22.112Z,13.48
2023-05-11T07:36:23.685Z,13.52
2023-05-11T07:38:25.269Z,13.56
2023-05-11T07:40:26.976Z,13.60
2023-05-11T07:42:28.529Z,13.59
2023-05-11T07:44:29.982Z,13.63
2023-05-11T07:46:31.499Z,13.67
2023-05-11T07:48:33.079Z,13.68
2023-05-11T07:50:34.880Z,13.74
2023-05-11T07:52:36.392Z,13.78
2023-05-11T07:54:37.996Z,13.81
2023-05-11T07:56:39.597Z,13.87
2023-05-11T07:58:41.136Z,13.92
2023-05-11T08:00:42.635Z,13.98
2023-05-11T08:02:44.330Z,13.96
2023-05-11T08:04:46.425Z,14.00
2023-05-11T08:06:48.281Z,14.02
2023-05-11T08:08:49.791Z,14.06
2023-05-11T08:10:51.873Z,14.10
2023-05-11T08:12:53.407Z,14.17
2023-05-11T08:14:55.334Z,14.23
2023-05-11T08:16:56.874Z,14.25
2023-05-11T08:18:58.455Z,14.31
2023-05-11T08:21:00.186Z,14.34
2023-05-11T08:23:01.673Z,14.40
2023-05-11T08:25:03.851Z,14.43
2023-05-11T08:27:06.157Z,14.48
2023-05-11T08:29:07.755Z,14.52
2023-05-11T08:31:09.230Z,14.58
2023-05-11T08:33:29.180Z,14.63
2023-05-11T08:35:33.146Z,14.66
2023-05-11T08:37:34.608Z,14.71
2023-05-11T08:39:46.690Z,14.74
2023-05-11T08:41:51.586Z,14.74
2023-05-11T08:43:55.161Z,14.75
2023-05-11T08:46:01.182Z,14.82
2023-05-11T08:48:03.575Z,14.86
2023-05-11T08:50:05.513Z,14.88
2023-05-11T08:52:08.062Z,14.95
2023-05-11T08:54:09.687Z,15.02
2023-05-11T08:56:13.018Z,14.88
2023-05-11T08:58:19.445Z,14.83
2023-05-11T09:00:23.168Z,14.85
2023-05-11T09:02:26.255Z,14.94
2023-05-11T09:04:28.607Z,15.04
2023-05-11T09:06:31.277Z,15.08
2023-05-11T09:08:35.849Z,15.17
2023-05-11T09:10:37.962Z,15.19
2023-05-11T09:12:39.562Z,15.28
2023-05-11T09:14:41.222Z,15.31
2023-05-11T09:16:42.779Z,15.37
2023-05-11T09:18:52.528Z,15.47
2023-05-11T09:20:54.406Z,15.54
2023-05-11T09:22:56.449Z,15.63
2023-05-11T09:24:58.021Z,15.66
2023-05-11T09:27:09.989Z,15.67
2023-05-11T09:29:11.725Z,15.72
2023-05-11T09:31:13.393Z,15.73
2023-05-11T09:33:22.844Z,15.69
2023-05-11T09:35:32.214Z,15.77
2023-05-11T09:37:33.726Z,15.83
2023-05-11T09:39:47.342Z,15.86
2023-05-11T09:42:19.161Z,15.86
2023-05-11T09:44:20.681Z,15.89
2023-05-11T09:46:22.744Z,15.97
2023-05-11T09:48:27.019Z,16.05
2023-05-11T09:50:33.419Z,16.12
2023-05-11T09:52:34.924Z,16.17
2023-05-11T09:54:44.928Z,16.22
2023-05-11T09:56:54.603Z,16.30
2023-05-11T09:58:57.608Z,16.36
2023-05-11T10:00:59.241Z,16.44
2023-05-11T10:03:06.696Z,16.51
2023-05-11T10:05:13.183Z,16.55
2023-05-11T10:07:25.196Z,16.61
2023-05-11T10:09:27.191Z,16.64
2023-05-11T10:11:28.678Z,16.65
2023-05-11T10:13:32.230Z,16.69
2023-05-11T10:15:35.303Z,16.73
2023-05-11T10:17:37.574Z,16.82
2023-05-11T10:19:39.550Z,16.89
2023-05-11T10:21:41.175Z,16.86
2023-05-11T10:23:43.142Z,16.85
2023-05-11T10:25:45.188Z,16.90
2023-05-11T10:27:47.284Z,16.88
2023-05-11T10:29:49.494Z,16.86
2023-05-11T10:31:52.423Z,16.81
2023-05-11T10:33:53.983Z,16.79
2023-05-11T10:35:56.148Z,16.74
2023-05-11T10:37:58.475Z,16.77
2023-05-11T10:40:00.311Z,16.78
2023-05-11T10:42:04.826Z,16.81
2023-05-11T10:44:12.676Z,16.79
2023-05-11T10:46:43.358Z,16.83
2023-05-11T10:48:55.010Z,16.83
2023-05-11T10:51:21.017Z,16.90
2023-05-11T10:53:25.603Z,16.95
2023-05-11T10:55:47.034Z,16.99
2023-05-11T10:58:05.637Z,17.04
2023-05-11T11:00:47.649Z,17.06
2023-05-11T11:02:49.483Z,17.00
2023-05-11T11:04:52.092Z,17.01
2023-05-11T11:07:06.585Z,17.03
2023-05-11T11:09:16.076Z,17.02
2023-05-11T11:11:34.258Z,17.06
2023-05-11T11:14:01.482Z,17.10
2023-05-11T11:16:02.933Z,17.20
2023-05-11T11:18:20.316Z,17.26
2023-05-11T11:20:54.988Z,17.28
2023-05-11T11:22:56.457Z,17.25
2023-05-11T11:24:57.991Z,17.16
2023-05-11T11:26:59.503Z,17.07
2023-05-11T11:29:11.572Z,17.02
2023-05-11T11:31:29.236Z,16.95
2023-05-11T11:33:32.568Z,16.90
2023-05-11T11:35:40.065Z,16.87
2023-05-11T11:38:03.142Z,16.84
2023-05-11T11:40:14.795Z,16.86
2023-05-11T11:42:20.038Z,16.86
2023-05-11T11:44:22.305Z,16.86
2023-05-11T11:46:29.774Z,16.80
2023-05-11T11:48:35.691Z,16.74
2023-05-11T11:50:37.396Z,16.73
2023-05-11T11:52:38.890Z,16.74
2023-05-11T11:54:41.402Z,16.77
2023-05-11T11:56:44.861Z,16.78
2023-05-11T11:58:46.572Z,16.77
2023-05-11T12:00:48.326Z,16.75
2023-05-11T12:02:50.076Z,16.71
2023-05-11T12:05:00.932Z,16.69
2023-05-11T12:07:06.109Z,16.70
2023-05-11T12:09:08.435Z,16.69
2023-05-11T12:11:09.977Z,16.75
2023-05-11T12:13:11.646Z,16.76
2023-05-11T12:15:30.474Z,16.82
2023-05-11T12:17:34.530Z,16.88
2023-05-11T12:19:36.698Z,16.93
2023-05-11T12:21:38.249Z,17.00
2023-05-11T12:23:39.725Z,17.04
2023-05-11T12:25:41.205Z,17.09
2023-05-11T12:28:01.986Z,17.13
2023-05-11T12:30:03.606Z,17.17
2023-05-11T12:32:05.399Z,17.19
2023-05-11T12:34:07.265Z,17.21
2023-05-11T12:36:09.040Z,17.22
2023-05-11T12:38:11.651Z,17.23
2023-05-11T12:40:13.997Z,17.25
2023-05-11T12:42:18.726Z,17.25
2023-05-11T12:44:22.385Z,17.18
2023-05-11T12:46:24.227Z,17.11
2023-05-11T12:48:25.863Z,16.99
2023-05-11T12:50:27.349Z,16.88
2023-05-11T12:52:28.818Z,16.81
2023-05-11T12:54:38.344Z,16.80
2023-05-11T12:56:47.357Z,16.78
2023-05-11T12:58:48.841Z,16.69
2023-05-11T13:00:57.587Z,16.64
2023-05-11T13:02:59.154Z,16.61
2023-05-11T13:05:12.028Z,16.64
2023-05-11T13:07:23.263Z,16.72
2023-05-11T13:09:25.807Z,16.78
2023-05-11T13:11:27.345Z,16.83
2023-05-11T13:13:29.359Z,16.83
2023-05-11T13:15:31.295Z,16.82
2023-05-11T13:17:37.663Z,16.83
2023-05-11T13:19:39.556Z,16.83
2023-05-11T13:21:46.227Z,16.77
2023-05-11T13:23:51.600Z,16.72
2023-05-11T13:25:54.158Z,16.69
2023-05-11T13:27:55.900Z,16.67
2023-05-11T13:29:57.349Z,16.62
2023-05-11T13:31:58.832Z,16.60
2023-05-11T13:34:00.499Z,16.63
2023-05-11T13:36:02.223Z,16.67
2023-05-11T13:38:03.687Z,16.66
2023-05-11T13:40:08.843Z,16.61
2023-05-11T13:42:10.489Z,16.57
2023-05-11T13:44:12.074Z,16.54
2023-05-11T13:46:13.564Z,16.54
2023-05-11T13:48:15.064Z,16.55
2023-05-11T13:50:16.869Z,16.52
2023-05-11T13:52:18.427Z,16.48
2023-05-11T13:54:21.234Z,16.47
2023-05-11T13:56:22.907Z,16.42
2023-05-11T13:58:24.518Z,16.33
2023-05-11T14:00:26.132Z,16.34
2023-05-11T14:02:27.836Z,16.39
2023-05-11T14:04:29.428Z,16.39
2023-05-11T14:06:34.560Z,16.39
2023-05-11T14:08:36.140Z,16.33
2023-05-11T14:10:37.610Z,16.29
2023-05-11T14:12:39.112Z,16.24
2023-05-11T14:14:40.684Z,16.17
2023-05-11T14:16:42.266Z,16.14
2023-05-11T14:18:44.401Z,16.12
2023-05-11T14:20:46.109Z,16.11
2023-05-11T14:22:47.636Z,16.10
2023-05-11T14:24:49.209Z,16.09
2023-05-11T14:26:50.695Z,16.09
2023-05-11T14:28:52.342Z,16.11
2023-05-11T14:30:54.824Z,16.11
2023-05-11T14:32:57.033Z,16.08
2023-05-11T14:34:58.589Z,16.02
2023-05-11T14:37:01.241Z,15.96
2023-05-11T14:39:02.776Z,15.91
2023-05-11T14:41:04.405Z,15.85
2023-05-11T14:43:05.921Z,15.83
2023-05-11T14:45:07.972Z,15.81
2023-05-11T14:47:09.555Z,15.77
2023-05-11T14:49:11.026Z,15.73
2023-05-11T14:51:12.535Z,15.72
2023-05-11T14:53:13.999Z,15.69
2023-05-11T14:55:15.577Z,15.70
2023-05-11T14:57:17.649Z,15.72
2023-05-11T14:59:20.052Z,15.68
2023-05-11T15:01:21.584Z,15.67
2023-05-11T15:03:25.025Z,15.64
2023-05-11T15:05:27.552Z,15.65
2023-05-11T15:07:29.030Z,15.60
2023-05-11T15:09:30.529Z,15.61
2023-05-11T15:11:32.078Z,15.63
2023-05-11T15:13:33.542Z,15.60
2023-05-11T15:15:35.040Z,15.56
2023-05-11T15:17:36.685Z,15.54
2023-05-11T15:19:38.247Z,15.50
2023-05-11T15:21:39.694Z,15.50
2023-05-11T15:23:41.389Z,15.51
2023-05-11T15:25:44.526Z,15.50
2023-05-11T15:27:46.150Z,15.49
2023-05-11T15:29:47.703Z,15.50
2023-05-11T15:31:49.205Z,15.51
2023-05-11T15:33:50.773Z,15.53
2023-05-11T15:35:52.400Z,15.53
2023-05-11T15:37:53.908Z,15.55
2023-05-11T15:39:55.482Z,15.58
2023-05-11T15:41:56.943Z,15.58
2023-05-11T15:43:58.398Z,15.56
2023-05-11T15:46:00.089Z,15.55
2023-05-11T15:48:02.170Z,15.54
2023-05-11T15:50:04.033Z,15.53
2023-05-11T15:52:05.754Z,15.51
2023-05-11T15:54:07.257Z,15.48
2023-05-11T15:56:09.640Z,15.47
2023-05-11T15:58:11.717Z,15.45
2023-05-11T16:00:13.978Z,15.44
2023-05-11T16:02:15.491Z,15.43
2023-05-11T16:04:16.995Z,15.40
2023-05-11T16:06:18.464Z,15.38
2023-05-11T16:08:20.350Z,15.35
2023-05-11T16:10:22.156Z,15.30
2023-05-11T16:12:23.680Z,15.25
2023-05-11T16:14:25.254Z,15.21
2023-05-11T16:16:27.134Z,15.16
2023-05-11T16:18:28.726Z,15.13
2023-05-11T16:20:30.693Z,15.12
2023-05-11T16:22:32.288Z,15.11
2023-05-11T16:24:34.507Z,15.09
2023-05-11T16:26:36.340Z,15.07
2023-05-11T16:28:37.909Z,15.03
2023-05-11T16:30:39.383Z,15.01
2023-05-11T16:32:40.899Z,15.00
2023-05-11T16:34:42.625Z,14.98
2023-05-11T16:36:44.942Z,14.98
2023-05-11T16:38:46.839Z,14.95
2023-05-11T16:40:49.656Z,14.96
2023-05-11T16:42:51.191Z,14.93
2023-05-11T16:44:52.688Z,14.94
2023-05-11T16:46:54.297Z,14.94
2023-05-11T16:48:56.722Z,14.94
2023-05-11T16:50:59.952Z,14.95
2023-05-11T16:53:01.571Z,14.92
2023-05-11T16:55:03.772Z,14.87
2023-05-11T16:57:05.903Z,14.84
2023-05-11T16:59:08.771Z,14.85
2023-05-11T17:01:11.151Z,14.88
2023-05-11T17:03:12.856Z,14.92
2023-05-11T17:05:15.919Z,14.98
2023-05-11T17:07:17.371Z,15.03
2023-05-11T17:09:18.887Z,15.05
2023-05-11T17:11:21.518Z,15.11
2023-05-11T17:13:23.022Z,15.11
2023-05-11T17:15:24.530Z,15.12
2023-05-11T17:17:26.115Z,15.06
2023-05-11T17:19:27.592Z,15.03
2023-05-11T17:21:29.150Z,15.00
2023-05-11T17:23:31.403Z,15.00
2023-05-11T17:25:33.296Z,15.00
2023-05-11T17:27:36.582Z,14.98
2023-05-11T17:29:38.091Z,14.96
2023-05-11T17:31:40.218Z,14.94
2023-05-11T17:33:42.215Z,14.91
2023-05-11T17:35:43.964Z,14.88
2023-05-11T17:37:45.525Z,14.86
2023-05-11T17:39:47.875Z,14.86
2023-05-11T17:41:49.500Z,14.84
2023-05-11T17:43:51.092Z,14.84
2023-05-11T17:45:52.642Z,14.82
2023-05-11T17:47:54.457Z,14.81
2023-05-11T17:49:56.411Z,14.81
2023-05-11T17:51:58.757Z,14.81
2023-05-11T17:54:00.206Z,14.79
2023-05-11T17:56:01.951Z,14.77
2023-05-11T17:58:03.412Z,14.76
2023-05-11T18:00:06.233Z,14.75
2023-05-11T18:02:08.180Z,14.75
2023-05-11T18:04:09.732Z,14.72
2023-05-11T18:06:11.449Z,14.71
2023-05-11T18:08:14.173Z,14.71
2023-05-11T18:10:15.751Z,14.71
2023-05-11T18:12:17.672Z,14.70
2023-05-11T18:14:19.332Z,14.69
2023-05-11T18:16:21.299Z,14.66
2023-05-11T18:18:23.833Z,14.63
2023-05-11T18:20:25.818Z,14.63
2023-05-11T18:22:28.237Z,14.62
2023-05-11T18:24:29.815Z,14.61
2023-05-11T18:26:31.454Z,14.59
2023-05-11T18:28:33.078Z,14.58
2023-05-11T18:30:35.657Z,14.58
2023-05-11T18:32:37.393Z,14.57
2023-05-11T18:34:42.554Z,14.55
2023-05-11T18:36:44.063Z,14.55
2023-05-11T18:38:48.786Z,14.54
2023-05-11T18:40:51.325Z,14.53
2023-05-11T18:42:53.728Z,14.53
2023-05-11T18:44:55.192Z,14.51
2023-05-11T18:46:56.772Z,14.50
2023-05-11T18:48:58.288Z,14.50
2023-05-11T18:50:59.802Z,14.50
2023-05-11T18:53:02.118Z,14.48
2023-05-11T18:55:04.151Z,14.47
2023-05-11T18:57:07.796Z,14.45
2023-05-11T18:59:09.429Z,14.44
2023-05-11T19:01:11.050Z,14.43
2023-05-11T19:03:14.601Z,14.42
2023-05-11T19:05:16.278Z,14.41
2023-05-11T19:07:20.007Z,14.41
2023-05-11T19:09:22.928Z,14.38
2023-05-11T19:11:25.587Z,14.37
2023-05-11T19:13:27.110Z,14.35
2023-05-11T19:15:28.612Z,14.32
2023-05-11T19:17:30.416Z,14.30
2023-05-11T19:19:32.058Z,14.27
2023-05-11T19:21:35.489Z,14.26
2023-05-11T19:23:37.200Z,14.22
2023-05-11T19:25:38.813Z,14.20
2023-05-11T19:27:40.344Z,14.17
2023-05-11T19:29:41.843Z,14.17
2023-05-11T19:31:43.746Z,14.12
2023-05-11T19:33:45.308Z,14.11
2023-05-11T19:35:46.768Z,14.10
2023-05-11T19:37:48.349Z,14.11
2023-05-11T19:39:49.899Z,14.09
2023-05-11T19:41:51.403Z,14.10
2023-05-11T19:43:52.902Z,14.10
2023-05-11T19:45:54.450Z,14.11
2023-05-11T19:47:55.972Z,14.11
2023-05-11T19:49:57.602Z,14.07
2023-05-11T19:51:59.064Z,14.07
2023-05-11T19:54:00.719Z,14.05
2023-05-11T19:56:02.288Z,14.04
2023-05-11T19:58:03.750Z,14.03
2023-05-11T20:00:07.203Z,14.00
2023-05-11T20:02:08.688Z,13.99
2023-05-11T20:04:12.655Z,13.98
2023-05-11T20:06:14.125Z,13.95
2023-05-11T20:08:16.227Z,13.97
2023-05-11T20:10:18.043Z,13.95
2023-05-11T20:12:19.720Z,13.94
2023-05-11T20:14:21.188Z,13.92
2023-05-11T20:16:22.798Z,13.92
2023-05-11T20:18:24.335Z,13.91
2023-05-11T20:20:25.887Z,13.90
2023-05-11T20:22:27.575Z,13.89
2023-05-11T20:24:29.327Z,13.88
2023-05-11T20:26:31.182Z,13.87
2023-05-11T20:28:32.728Z,13.85
2023-05-11T20:30:34.209Z,13.86
2023-05-11T20:32:37.299Z,13.86
2023-05-11T20:34:39.017Z,13.84
2023-05-11T20:36:40.563Z,13.83
2023-05-11T20:38:42.006Z,13.81
2023-05-11T20:40:43.533Z,13.82
2023-05-11T20:42:45.060Z,13.81
2023-05-11T20:44:49.212Z,13.80
2023-05-11T20:46:50.728Z,13.81
2023-05-11T20:48:52.388Z,13.79
2023-05-11T20:50:54.829Z,13.79
2023-05-11T20:52:56.406Z,13.78
2023-05-11T20:54:57.855Z,13.77
2023-05-11T20:56:59.710Z,13.77
2023-05-11T20:59:01.170Z,13.78
2023-05-11T21:01:02.729Z,13.77
2023-05-11T21:03:04.564Z,13.77
2023-05-11T21:05:06.538Z,13.76
2023-05-11T21:07:08.423Z,13.74
2023-05-11T21:09:10.868Z,13.73
2023-05-11T21:11:12.345Z,13.74
2023-05-11T21:13:13.888Z,13.75
2023-05-11T21:15:15.413Z,13.75
2023-05-11T21:17:17.079Z,13.76
2023-05-11T21:19:19.610Z,13.75
2023-05-11T21:21:21.330Z,13.75
2023-05-11T21:23:22.783Z,13.74
2023-05-11T21:25:24.266Z,13.75
2023-05-11T21:27:25.825Z,13.74
2023-05-11T21:29:27.282Z,13.74
2023-05-11T21:31:28.891Z,13.72
2023-05-11T21:33:30.511Z,13.74
2023-05-11T21:35:31.973Z,13.73
2023-05-11T21:37:35.483Z,13.73
2023-05-11T21:39:36.966Z,13.72
2023-05-11T21:41:39.105Z,13.72
2023-05-11T21:43:41.070Z,13.71
2023-05-11T21:45:44.439Z,13.72
2023-05-11T21:47:46.183Z,13.71
2023-05-11T21:49:48.190Z,13.70
2023-05-11T21:51:51.019Z,13.72
2023-05-11T21:53:53.010Z,13.70
2023-05-11T21:55:55.028Z,13.68
2023-05-11T21:57:56.646Z,13.68
2023-05-11T21:59:58.139Z,13.68
2023-05-11T22:01:59.759Z,13.66
2023-05-11T22:04:01.425Z,13.66
2023-05-11T22:06:03.042Z,13.65
2023-05-11T22:08:13.980Z,13.66
2023-05-11T22:10:16.367Z,13.65
2023-05-11T22:12:18.058Z,13.65
2023-05-11T22:14:23.934Z,13.63
2023-05-11T22:16:25.597Z,13.63
2023-05-11T22:18:27.181Z,13.62
2023-05-11T22:20:28.645Z,13.62
2023-05-11T22:22:30.737Z,13.62
2023-05-11T22:24:32.282Z,13.63
2023-05-11T22:26:33.739Z,13.62
2023-05-11T22:28:35.983Z,13.61
2023-05-11T22:30:37.531Z,13.60
2023-05-11T22:32:39.018Z,13.60
2023-05-11T22:34:40.527Z,13.60
2023-05-11T22:36:41.980Z,13.61
2023-05-11T22:38:43.460Z,13.60
2023-05-11T22:40:44.971Z,13.60
2023-05-11T22:42:46.591Z,13.59
2023-05-11T22:44:48.533Z,13.59
2023-05-11T22:46:50.399Z,13.59
2023-05-11T22:48:51.927Z,13.59
2023-05-11T22:50:53.770Z,13.58
2023-05-11T22:52:55.270Z,13.58
2023-05-11T22:54:59.533Z,13.58
2023-05-11T22:57:01.666Z,13.59
2023-05-11T22:59:04.605Z,13.58
2023-05-11T23:01:06.404Z,13.57
2023-05-11T23:03:08.243Z,13.59
2023-05-11T23:05:10.063Z,13.60
2023-05-11T23:07:12.827Z,13.57
2023-05-11T23:09:15.060Z,13.59
2023-05-11T23:11:16.599Z,13.56
2023-05-11T23:13:18.468Z,13.56
2023-05-11T23:15:20.013Z,13.55
2023-05-11T23:17:21.745Z,13.54
2023-05-11T23:19:25.127Z,13.52
2023-05-11T23:21:26.932Z,13.51
2023-05-11T23:23:28.410Z,13.50
2023-05-11T23:25:29.893Z,13.50
2023-05-11T23:27:31.384Z,13.49
2023-05-11T23:29:32.921Z,13.47
2023-05-11T23:31:34.493Z,13.49
2023-05-11T23:33:36.444Z,13.47
2023-05-11T23:35:38.433Z,13.48
2023-05-11T23:37:40.266Z,13.47
2023-05-11T23:39:41.761Z,13.47
2023-05-11T23:41:43.238Z,13.46
2023-05-11T23:43:44.873Z,13.44
2023-05-11T23:45:46.317Z,13.43
2023-05-11T23:47:47.865Z,13.43
2023-05-11T23:49:49.616Z,13.41
2023-05-11T23:51:51.147Z,13.41
2023-05-11T23:53:52.691Z,13.38
2023-05-11T23:55:54.295Z,13.37
2023-05-11T23:57:58.222Z,13.34
